sensor_id;sensor_type;location;lat;lon;timestamp;pressure;altitude;pressure_sealevel;temperature;humidity
66668;BME280;57205;51.438;-2.006;2023-02-16T00:00:44;101549.13;;;6.87;100.00
66668;BME280;57205;51.438;-2.006;2023-02-16T00:03:13;101544.25;;;6.84;100.00
66668;BME280;57205;51.438;-2.006;2023-02-16T00:05:39;101548.34;;;6.87;100.00
66668;BME280;57205;51.438;-2.006;2023-02-16T00:08:04;101545.31;;;6.83;100.00
66668;BME280;57205;51.438;-2.006;2023-02-16T00:10:33;101541.22;;;6.81;100.00
66668;BME280;57205;51.438;-2.006;2023-02-16T00:12:59;101540.19;;;6.82;100.00
66668;BME280;57205;51.438;-2.006;2023-02-16T00:16:03;101536.72;;;6.81;100.00
66668;BME280;57205;51.438;-2.006;2023-02-16T00:18:28;101536.72;;;6.81;100.00
66668;BME280;57205;51.438;-2.006;2023-02-16T00:20:54;101532.00;;;6.83;100.00
66668;BME280;57205;51.438;-2.006;2023-02-16T00:23:19;101533.63;;;6.84;100.00
66668;BME280;57205;51.438;-2.006;2023-02-16T00:25:44;101524.03;;;6.83;100.00
66668;BME280;57205;51.438;-2.006;2023-02-16T00:28:12;101519.06;;;6.87;100.00
66668;BME280;57205;51.438;-2.006;2023-02-16T00:30:38;101516.66;;;6.85;100.00
66668;BME280;57205;51.438;-2.006;2023-02-16T00:33:12;101514.56;;;6.87;100.00
66668;BME280;57205;51.438;-2.006;2023-02-16T00:35:39;101509.81;;;6.89;100.00
66668;BME280;57205;51.438;-2.006;2023-02-16T00:38:04;101516.78;;;6.90;100.00
66668;BME280;57205;51.438;-2.006;2023-02-16T00:40:31;101506.53;;;6.94;100.00
66668;BME280;57205;51.438;-2.006;2023-02-16T00:42:57;101499.78;;;6.91;100.00
66668;BME280;57205;51.438;-2.006;2023-02-16T00:45:23;101494.47;;;6.91;100.00
66668;BME280;57205;51.438;-2.006;2023-02-16T00:47:50;101493.88;;;6.89;100.00
66668;BME280;57205;51.438;-2.006;2023-02-16T00:50:21;101486.25;;;6.93;100.00
66668;BME280;57205;51.438;-2.006;2023-02-16T00:52:47;101492.41;;;6.93;100.00
66668;BME280;57205;51.438;-2.006;2023-02-16T00:55:19;101487.91;;;6.94;100.00
66668;BME280;57205;51.438;-2.006;2023-02-16T00:57:47;101474.59;;;6.94;100.00
66668;BME280;57205;51.438;-2.006;2023-02-16T01:02:44;101463.75;;;6.96;100.00
66668;BME280;57205;51.438;-2.006;2023-02-16T01:05:09;101454.94;;;6.95;100.00
66668;BME280;57205;51.438;-2.006;2023-02-16T01:07:35;101453.53;;;6.93;100.00
66668;BME280;57205;51.438;-2.006;2023-02-16T01:10:19;101445.34;;;6.94;100.00
66668;BME280;57205;51.438;-2.006;2023-02-16T01:13:03;101437.13;;;6.96;100.00
66668;BME280;57205;51.438;-2.006;2023-02-16T01:15:29;101435.28;;;6.96;100.00
66668;BME280;57205;51.438;-2.006;2023-02-16T01:17:54;101426.72;;;6.94;100.00
66668;BME280;57205;51.438;-2.006;2023-02-16T01:20:21;101419.75;;;6.93;100.00
66668;BME280;57205;51.438;-2.006;2023-02-16T01:22:47;101431.22;;;6.93;100.00
66668;BME280;57205;51.438;-2.006;2023-02-16T01:25:13;101422.63;;;6.91;100.00
66668;BME280;57205;51.438;-2.006;2023-02-16T01:27:39;101415.03;;;6.95;100.00
66668;BME280;57205;51.438;-2.006;2023-02-16T01:30:05;101413.19;;;6.96;100.00
66668;BME280;57205;51.438;-2.006;2023-02-16T01:32:31;101407.88;;;6.96;100.00
66668;BME280;57205;51.438;-2.006;2023-02-16T01:34:57;101421.16;;;6.96;100.00
66668;BME280;57205;51.438;-2.006;2023-02-16T01:37:22;101416.44;;;6.98;100.00
66668;BME280;57205;51.438;-2.006;2023-02-16T01:39:48;101416.91;;;6.95;100.00
66668;BME280;57205;51.438;-2.006;2023-02-16T01:44:45;101414.00;;;6.96;100.00
66668;BME280;57205;51.438;-2.006;2023-02-16T01:47:24;101420.94;;;6.97;100.00
66668;BME280;57205;51.438;-2.006;2023-02-16T01:49:52;101411.72;;;7.00;100.00
66668;BME280;57205;51.438;-2.006;2023-02-16T01:57:40;101382.81;;;7.03;100.00
66668;BME280;57205;51.438;-2.006;2023-02-16T02:00:09;101377.63;;;7.08;100.00
66668;BME280;57205;51.438;-2.006;2023-02-16T02:02:36;101383.13;;;7.13;100.00
66668;BME280;57205;51.438;-2.006;2023-02-16T02:13:03;101372.16;;;7.21;100.00
66668;BME280;57205;51.438;-2.006;2023-02-16T02:15:30;101376.81;;;7.26;100.00
66668;BME280;57205;51.438;-2.006;2023-02-16T02:17:56;101365.34;;;7.25;100.00
66668;BME280;57205;51.438;-2.006;2023-02-16T02:20:25;101369.84;;;7.25;100.00
66668;BME280;57205;51.438;-2.006;2023-02-16T02:23:17;101360.63;;;7.27;100.00
66668;BME280;57205;51.438;-2.006;2023-02-16T02:30:51;101346.41;;;7.33;100.00
66668;BME280;57205;51.438;-2.006;2023-02-16T02:36:15;101340.28;;;7.33;100.00
66668;BME280;57205;51.438;-2.006;2023-02-16T02:38:51;101345.13;;;7.36;100.00
66668;BME280;57205;51.438;-2.006;2023-02-16T02:44:23;101325.84;;;7.40;100.00
66668;BME280;57205;51.438;-2.006;2023-02-16T02:46:51;101318.91;;;7.39;100.00
66668;BME280;57205;51.438;-2.006;2023-02-16T02:49:16;101316.00;;;7.41;100.00
66668;BME280;57205;51.438;-2.006;2023-02-16T02:51:41;101324.81;;;7.41;100.00
66668;BME280;57205;51.438;-2.006;2023-02-16T02:54:23;101329.69;;;7.44;100.00
66668;BME280;57205;51.438;-2.006;2023-02-16T03:02:52;101321.81;;;7.49;100.00
66668;BME280;57205;51.438;-2.006;2023-02-16T03:05:18;101309.31;;;7.50;100.00
66668;BME280;57205;51.438;-2.006;2023-02-16T03:07:45;101308.50;;;7.49;100.00
66668;BME280;57205;51.438;-2.006;2023-02-16T03:10:20;101297.84;;;7.49;100.00
66668;BME280;57205;51.438;-2.006;2023-02-16T03:13:07;101301.56;;;7.48;100.00
66668;BME280;57205;51.438;-2.006;2023-02-16T03:15:34;101295.78;;;7.51;100.00
66668;BME280;57205;51.438;-2.006;2023-02-16T03:17:59;101287.56;;;7.53;100.00
66668;BME280;57205;51.438;-2.006;2023-02-16T03:20:45;101287.31;;;7.54;100.00
66668;BME280;57205;51.438;-2.006;2023-02-16T03:23:29;101280.97;;;7.55;100.00
66668;BME280;57205;51.438;-2.006;2023-02-16T03:26:14;101278.31;;;7.55;100.00
66668;BME280;57205;51.438;-2.006;2023-02-16T03:28:59;101272.75;;;7.57;100.00
66668;BME280;57205;51.438;-2.006;2023-02-16T03:31:44;101270.44;;;7.60;100.00
66668;BME280;57205;51.438;-2.006;2023-02-16T03:34:10;101262.81;;;7.64;100.00
66668;BME280;57205;51.438;-2.006;2023-02-16T03:36:37;101276.13;;;7.64;100.00
66668;BME280;57205;51.438;-2.006;2023-02-16T03:39:03;101271.97;;;7.68;100.00
66668;BME280;57205;51.438;-2.006;2023-02-16T03:41:33;101261.31;;;7.68;100.00
66668;BME280;57205;51.438;-2.006;2023-02-16T03:44:01;101261.44;;;7.73;100.00
66668;BME280;57205;51.438;-2.006;2023-02-16T03:46:27;101252.66;;;7.72;100.00
66668;BME280;57205;51.438;-2.006;2023-02-16T03:48:52;101261.22;;;7.74;100.00
66668;BME280;57205;51.438;-2.006;2023-02-16T03:51:17;101248.69;;;7.75;100.00
66668;BME280;57205;51.438;-2.006;2023-02-16T03:53:42;101242.09;;;7.77;100.00
66668;BME280;57205;51.438;-2.006;2023-02-16T03:56:08;101244.53;;;7.79;100.00
66668;BME280;57205;51.438;-2.006;2023-02-16T03:58:33;101237.38;;;7.79;100.00
66668;BME280;57205;51.438;-2.006;2023-02-16T04:00:58;101233.06;;;7.78;100.00
66668;BME280;57205;51.438;-2.006;2023-02-16T04:03:24;101228.56;;;7.79;100.00
66668;BME280;57205;51.438;-2.006;2023-02-16T04:05:49;101227.72;;;7.78;100.00
66668;BME280;57205;51.438;-2.006;2023-02-16T04:08:14;101221.63;;;7.78;100.00
66668;BME280;57205;51.438;-2.006;2023-02-16T04:10:40;101213.88;;;7.76;100.00
66668;BME280;57205;51.438;-2.006;2023-02-16T04:13:05;101213.63;;;7.78;100.00
66668;BME280;57205;51.438;-2.006;2023-02-16T04:15:31;101214.22;;;7.80;100.00
66668;BME280;57205;51.438;-2.006;2023-02-16T04:17:57;101210.03;;;7.84;100.00
66668;BME280;57205;51.438;-2.006;2023-02-16T04:20:23;101204.47;;;7.85;100.00
66668;BME280;57205;51.438;-2.006;2023-02-16T04:22:49;101204.81;;;7.89;100.00
66668;BME280;57205;51.438;-2.006;2023-02-16T04:25:14;101200.06;;;7.91;100.00
66668;BME280;57205;51.438;-2.006;2023-02-16T04:27:40;101206.19;;;7.91;100.00
66668;BME280;57205;51.438;-2.006;2023-02-16T04:30:07;101204.34;;;7.92;100.00
66668;BME280;57205;51.438;-2.006;2023-02-16T04:32:33;101198.00;;;7.93;100.00
66668;BME280;57205;51.438;-2.006;2023-02-16T04:34:58;101209.00;;;7.97;100.00
66668;BME280;57205;51.438;-2.006;2023-02-16T04:37:23;101214.31;;;7.97;100.00
66668;BME280;57205;51.438;-2.006;2023-02-16T04:39:49;101210.16;;;8.01;100.00
66668;BME280;57205;51.438;-2.006;2023-02-16T04:42:14;101191.25;;;8.02;100.00
66668;BME280;57205;51.438;-2.006;2023-02-16T04:44:39;101200.41;;;8.06;100.00
66668;BME280;57205;51.438;-2.006;2023-02-16T04:47:05;101191.38;;;8.07;100.00
66668;BME280;57205;51.438;-2.006;2023-02-16T04:49:30;101196.00;;;8.12;100.00
66668;BME280;57205;51.438;-2.006;2023-02-16T04:51:55;101194.94;;;8.13;100.00
66668;BME280;57205;51.438;-2.006;2023-02-16T04:54:21;101195.53;;;8.15;100.00
66668;BME280;57205;51.438;-2.006;2023-02-16T04:56:46;101208.84;;;8.15;100.00
66668;BME280;57205;51.438;-2.006;2023-02-16T04:59:12;101202.25;;;8.17;100.00
66668;BME280;57205;51.438;-2.006;2023-02-16T05:01:38;101199.59;;;8.17;100.00
66668;BME280;57205;51.438;-2.006;2023-02-16T05:04:03;101197.50;;;8.19;100.00
66668;BME280;57205;51.438;-2.006;2023-02-16T05:06:28;101195.38;;;8.21;100.00
66668;BME280;57205;51.438;-2.006;2023-02-16T05:08:54;101202.84;;;8.19;100.00
66668;BME280;57205;51.438;-2.006;2023-02-16T05:11:19;101206.06;;;8.21;100.00
66668;BME280;57205;51.438;-2.006;2023-02-16T05:14:03;101203.63;;;8.20;100.00
66668;BME280;57205;51.438;-2.006;2023-02-16T05:16:47;101204.94;;;8.17;100.00
66668;BME280;57205;51.438;-2.006;2023-02-16T05:19:12;101203.88;;;8.18;100.00
66668;BME280;57205;51.438;-2.006;2023-02-16T05:21:37;101197.13;;;8.16;100.00
66668;BME280;57205;51.438;-2.006;2023-02-16T05:24:05;101197.97;;;8.16;100.00
66668;BME280;57205;51.438;-2.006;2023-02-16T05:26:31;101197.38;;;8.14;100.00
66668;BME280;57205;51.438;-2.006;2023-02-16T05:28:56;101201.69;;;8.15;100.00
66668;BME280;57205;51.438;-2.006;2023-02-16T05:31:22;101191.03;;;8.15;100.00
66668;BME280;57205;51.438;-2.006;2023-02-16T05:33:47;101196.44;;;8.20;100.00
66668;BME280;57205;51.438;-2.006;2023-02-16T05:36:13;101190.53;;;8.18;100.00
66668;BME280;57205;51.438;-2.006;2023-02-16T05:38:38;101199.59;;;8.17;100.00
66668;BME280;57205;51.438;-2.006;2023-02-16T05:41:03;101191.34;;;8.19;100.00
66668;BME280;57205;51.438;-2.006;2023-02-16T05:43:29;101183.59;;;8.17;100.00
66668;BME280;57205;51.438;-2.006;2023-02-16T05:45:54;101175.59;;;8.17;100.00
66668;BME280;57205;51.438;-2.006;2023-02-16T05:48:19;101160.41;;;8.18;100.00
66668;BME280;57205;51.438;-2.006;2023-02-16T05:50:45;101163.88;;;8.18;100.00
66668;BME280;57205;51.438;-2.006;2023-02-16T05:53:10;101162.38;;;8.22;100.00
66668;BME280;57205;51.438;-2.006;2023-02-16T05:55:35;101147.41;;;8.21;100.00
66668;BME280;57205;51.438;-2.006;2023-02-16T05:58:00;101151.06;;;8.27;100.00
66668;BME280;57205;51.438;-2.006;2023-02-16T06:00:26;101149.16;;;8.27;100.00
66668;BME280;57205;51.438;-2.006;2023-02-16T06:02:51;101158.81;;;8.28;100.00
66668;BME280;57205;51.438;-2.006;2023-02-16T06:05:16;101162.50;;;8.27;100.00
66668;BME280;57205;51.438;-2.006;2023-02-16T06:07:42;101160.41;;;8.29;100.00
66668;BME280;57205;51.438;-2.006;2023-02-16T06:10:07;101159.59;;;8.29;100.00
66668;BME280;57205;51.438;-2.006;2023-02-16T06:12:32;101162.06;;;8.30;100.00
66668;BME280;57205;51.438;-2.006;2023-02-16T06:14:59;101154.63;;;8.32;100.00
66668;BME280;57205;51.438;-2.006;2023-02-16T06:17:24;101159.72;;;8.34;100.00
66668;BME280;57205;51.438;-2.006;2023-02-16T06:19:49;101157.84;;;8.34;100.00
66668;BME280;57205;51.438;-2.006;2023-02-16T06:22:14;101148.00;;;8.35;100.00
66668;BME280;57205;51.438;-2.006;2023-02-16T06:24:39;101151.47;;;8.35;100.00
66668;BME280;57205;51.438;-2.006;2023-02-16T06:27:05;101158.66;;;8.35;100.00
66668;BME280;57205;51.438;-2.006;2023-02-16T06:29:31;101149.84;;;8.34;100.00
66668;BME280;57205;51.438;-2.006;2023-02-16T06:31:56;101150.66;;;8.35;100.00
66668;BME280;57205;51.438;-2.006;2023-02-16T06:34:21;101158.22;;;8.38;100.00
66668;BME280;57205;51.438;-2.006;2023-02-16T06:36:47;101153.66;;;8.38;100.00
66668;BME280;57205;51.438;-2.006;2023-02-16T06:39:12;101149.97;;;8.39;100.00
66668;BME280;57205;51.438;-2.006;2023-02-16T06:41:38;101149.47;;;8.42;100.00
66668;BME280;57205;51.438;-2.006;2023-02-16T06:44:08;101136.72;;;8.44;100.00
66668;BME280;57205;51.438;-2.006;2023-02-16T06:46:34;101142.53;;;8.41;100.00
66668;BME280;57205;51.438;-2.006;2023-02-16T06:48:59;101139.88;;;8.41;100.00
66668;BME280;57205;51.438;-2.006;2023-02-16T06:51:24;101136.47;;;8.46;100.00
66668;BME280;57205;51.438;-2.006;2023-02-16T06:53:50;101142.63;;;8.46;100.00
66668;BME280;57205;51.438;-2.006;2023-02-16T06:56:15;101142.88;;;8.45;100.00
66668;BME280;57205;51.438;-2.006;2023-02-16T06:58:40;101149.03;;;8.45;100.00
66668;BME280;57205;51.438;-2.006;2023-02-16T07:01:05;101153.88;;;8.48;100.00
66668;BME280;57205;51.438;-2.006;2023-02-16T07:03:31;101147.25;;;8.51;100.00
66668;BME280;57205;51.438;-2.006;2023-02-16T07:05:56;101156.06;;;8.51;100.00
66668;BME280;57205;51.438;-2.006;2023-02-16T07:08:21;101149.69;;;8.52;100.00
66668;BME280;57205;51.438;-2.006;2023-02-16T07:10:47;101152.34;;;8.52;100.00
66668;BME280;57205;51.438;-2.006;2023-02-16T07:13:12;101159.28;;;8.53;100.00
66668;BME280;57205;51.438;-2.006;2023-02-16T07:15:38;101157.22;;;8.55;100.00
66668;BME280;57205;51.438;-2.006;2023-02-16T07:18:03;101166.03;;;8.56;100.00
66668;BME280;57205;51.438;-2.006;2023-02-16T07:20:29;101164.72;;;8.58;100.00
66668;BME280;57205;51.438;-2.006;2023-02-16T07:22:54;101165.53;;;8.59;100.00
66668;BME280;57205;51.438;-2.006;2023-02-16T07:25:19;101166.34;;;8.59;100.00
66668;BME280;57205;51.438;-2.006;2023-02-16T07:27:45;101165.88;;;8.62;100.00
66668;BME280;57205;51.438;-2.006;2023-02-16T07:30:10;101168.09;;;8.65;100.00
66668;BME280;57205;51.438;-2.006;2023-02-16T07:32:36;101167.34;;;8.70;100.00
66668;BME280;57205;51.438;-2.006;2023-02-16T07:35:01;101170.34;;;8.73;100.00
66668;BME280;57205;51.438;-2.006;2023-02-16T07:37:26;101174.66;;;8.74;100.00
66668;BME280;57205;51.438;-2.006;2023-02-16T07:39:52;101173.13;;;8.78;100.00
66668;BME280;57205;51.438;-2.006;2023-02-16T07:42:17;101186.00;;;8.81;100.00
66668;BME280;57205;51.438;-2.006;2023-02-16T07:44:43;101179.03;;;8.80;100.00
66668;BME280;57205;51.438;-2.006;2023-02-16T07:47:08;101176.13;;;8.82;100.00
66668;BME280;57205;51.438;-2.006;2023-02-16T07:49:33;101177.50;;;8.84;100.00
66668;BME280;57205;51.438;-2.006;2023-02-16T07:51:58;101187.47;;;8.89;100.00
66668;BME280;57205;51.438;-2.006;2023-02-16T07:54:24;101188.84;;;8.92;100.00
66668;BME280;57205;51.438;-2.006;2023-02-16T07:56:49;101184.63;;;8.96;100.00
66668;BME280;57205;51.438;-2.006;2023-02-16T07:59:14;101194.03;;;8.98;100.00
66668;BME280;57205;51.438;-2.006;2023-02-16T08:01:41;101190.78;;;8.96;100.00
66668;BME280;57205;51.438;-2.006;2023-02-16T08:04:06;101195.31;;;8.96;100.00
66668;BME280;57205;51.438;-2.006;2023-02-16T08:06:33;101198.81;;;8.96;100.00
66668;BME280;57205;51.438;-2.006;2023-02-16T08:08:58;101195.09;;;8.97;100.00
66668;BME280;57205;51.438;-2.006;2023-02-16T08:11:24;101202.03;;;8.98;100.00
66668;BME280;57205;51.438;-2.006;2023-02-16T08:13:50;101195.88;;;8.98;100.00
66668;BME280;57205;51.438;-2.006;2023-02-16T08:16:17;101193.78;;;9.00;100.00
66668;BME280;57205;51.438;-2.006;2023-02-16T08:18:43;101196.78;;;9.03;100.00
66668;BME280;57205;51.438;-2.006;2023-02-16T08:21:10;101191.56;;;9.08;100.00
66668;BME280;57205;51.438;-2.006;2023-02-16T08:23:38;101191.56;;;9.08;100.00
66668;BME280;57205;51.438;-2.006;2023-02-16T08:26:07;101189.78;;;9.14;100.00
66668;BME280;57205;51.438;-2.006;2023-02-16T08:28:33;101194.63;;;9.17;100.00
66668;BME280;57205;51.438;-2.006;2023-02-16T08:31:02;101189.63;;;9.20;100.00
66668;BME280;57205;51.438;-2.006;2023-02-16T08:33:27;101185.41;;;9.24;100.00
66668;BME280;57205;51.438;-2.006;2023-02-16T08:35:53;101192.72;;;9.29;100.00
66668;BME280;57205;51.438;-2.006;2023-02-16T08:38:18;101189.00;;;9.30;100.00
66668;BME280;57205;51.438;-2.006;2023-02-16T08:40:48;101190.13;;;9.34;100.00
66668;BME280;57205;51.438;-2.006;2023-02-16T08:43:13;101194.03;;;9.43;100.00
66668;BME280;57205;51.438;-2.006;2023-02-16T08:45:42;101201.31;;;9.47;100.00
66668;BME280;57205;51.438;-2.006;2023-02-16T08:48:08;101201.63;;;9.51;100.00
66668;BME280;57205;51.438;-2.006;2023-02-16T08:50:33;101205.19;;;9.56;100.00
66668;BME280;57205;51.438;-2.006;2023-02-16T08:53:01;101206.00;;;9.57;100.00
66668;BME280;57205;51.438;-2.006;2023-02-16T08:55:26;101210.88;;;9.60;100.00
66668;BME280;57205;51.438;-2.006;2023-02-16T08:57:51;101199.22;;;9.66;100.00
66668;BME280;57205;51.438;-2.006;2023-02-16T09:00:17;101193.88;;;9.66;100.00
66668;BME280;57205;51.438;-2.006;2023-02-16T09:03:01;101193.88;;;9.66;100.00
66668;BME280;57205;51.438;-2.006;2023-02-16T09:05:28;101195.78;;;9.70;100.00
66668;BME280;57205;51.438;-2.006;2023-02-16T09:07:53;101199.03;;;9.72;100.00
66668;BME280;57205;51.438;-2.006;2023-02-16T09:10:19;101195.31;;;9.73;100.00
66668;BME280;57205;51.438;-2.006;2023-02-16T09:12:47;101197.75;;;9.75;100.00
66668;BME280;57205;51.438;-2.006;2023-02-16T09:15:13;101189.47;;;9.76;100.00
66668;BME280;57205;51.438;-2.006;2023-02-16T09:17:40;101179.59;;;9.77;100.00
66668;BME280;57205;51.438;-2.006;2023-02-16T09:20:06;101180.97;;;9.79;100.00
66668;BME280;57205;51.438;-2.006;2023-02-16T09:22:32;101182.09;;;9.83;100.00
66668;BME280;57205;51.438;-2.006;2023-02-16T09:24:57;101185.66;;;9.89;100.00
66668;BME280;57205;51.438;-2.006;2023-02-16T09:27:22;101185.25;;;9.97;100.00
66668;BME280;57205;51.438;-2.006;2023-02-16T09:29:47;101178.34;;;10.01;100.00
66668;BME280;57205;51.438;-2.006;2023-02-16T09:32:13;101186.44;;;10.06;100.00
66668;BME280;57205;51.438;-2.006;2023-02-16T09:34:39;101192.44;;;10.13;100.00
66668;BME280;57205;51.438;-2.006;2023-02-16T09:37:05;101194.69;;;10.21;100.00
66668;BME280;57205;51.438;-2.006;2023-02-16T09:39:30;101205.75;;;10.30;100.00
66668;BME280;57205;51.438;-2.006;2023-02-16T09:47:25;101207.97;;;10.54;100.00
66668;BME280;57205;51.438;-2.006;2023-02-16T09:49:53;101213.09;;;10.61;100.00
66668;BME280;57205;51.438;-2.006;2023-02-16T09:54:55;101207.03;;;10.65;100.00
66668;BME280;57205;51.438;-2.006;2023-02-16T10:02:37;101198.09;;;10.81;100.00
66668;BME280;57205;51.438;-2.006;2023-02-16T10:10:20;101198.84;;;11.04;100.00
66668;BME280;57205;51.438;-2.006;2023-02-16T10:12:49;101194.13;;;11.11;100.00
66668;BME280;57205;51.438;-2.006;2023-02-16T10:15:16;101194.72;;;11.18;100.00
66668;BME280;57205;51.438;-2.006;2023-02-16T10:17:45;101202.81;;;11.23;100.00
66668;BME280;57205;51.438;-2.006;2023-02-16T10:20:14;101198.03;;;11.30;100.00
66668;BME280;57205;51.438;-2.006;2023-02-16T10:23:28;101207.00;;;11.40;100.00
66668;BME280;57205;51.438;-2.006;2023-02-16T10:28:19;101218.84;;;11.49;100.00
66668;BME280;57205;51.438;-2.006;2023-02-16T10:36:05;101213.75;;;11.48;100.00
66668;BME280;57205;51.438;-2.006;2023-02-16T10:38:44;101224.22;;;11.49;100.00
66668;BME280;57205;51.438;-2.006;2023-02-16T10:41:58;101226.91;;;11.49;100.00
66668;BME280;57205;51.438;-2.006;2023-02-16T10:46:37;101232.25;;;11.49;100.00
66668;BME280;57205;51.438;-2.006;2023-02-16T10:49:04;101235.69;;;11.45;100.00
66668;BME280;57205;51.438;-2.006;2023-02-16T10:51:32;101236.81;;;11.49;100.00
66668;BME280;57205;51.438;-2.006;2023-02-16T10:59:05;101255.31;;;11.50;100.00
66668;BME280;57205;51.438;-2.006;2023-02-16T11:04:00;101250.34;;;11.64;100.00
66668;BME280;57205;51.438;-2.006;2023-02-16T11:06:25;101246.69;;;11.70;100.00
66668;BME280;57205;51.438;-2.006;2023-02-16T11:08:52;101251.47;;;11.68;100.00
66668;BME280;57205;51.438;-2.006;2023-02-16T11:11:20;101250.41;;;11.69;100.00
66668;BME280;57205;51.438;-2.006;2023-02-16T11:13:48;101253.38;;;11.72;100.00
66668;BME280;57205;51.438;-2.006;2023-02-16T11:16:18;101259.59;;;11.78;100.00
66668;BME280;57205;51.438;-2.006;2023-02-16T11:18:45;101258.56;;;11.84;100.00
66668;BME280;57205;51.438;-2.006;2023-02-16T11:21:13;101260.22;;;11.90;100.00
66668;BME280;57205;51.438;-2.006;2023-02-16T11:23:40;101251.44;;;11.95;100.00
66668;BME280;57205;51.438;-2.006;2023-02-16T11:28:41;101237.03;;;12.11;100.00
66668;BME280;57205;51.438;-2.006;2023-02-16T11:33:55;101236.88;;;12.32;100.00
66668;BME280;57205;51.438;-2.006;2023-02-16T11:36:40;101230.78;;;12.42;100.00
66668;BME280;57205;51.438;-2.006;2023-02-16T11:41:44;101215.56;;;12.57;100.00
66668;BME280;57205;51.438;-2.006;2023-02-16T11:46:50;101216.16;;;12.80;100.00
66668;BME280;57205;51.438;-2.006;2023-02-16T11:49:20;101222.91;;;12.87;100.00
66668;BME280;57205;51.438;-2.006;2023-02-16T11:51:46;101212.94;;;12.88;100.00
66668;BME280;57205;51.438;-2.006;2023-02-16T11:54:15;101208.66;;;12.92;100.00
66668;BME280;57205;51.438;-2.006;2023-02-16T11:56:40;101200.91;;;13.00;100.00
66668;BME280;57205;51.438;-2.006;2023-02-16T12:11:52;101190.50;;;13.24;100.00
66668;BME280;57205;51.438;-2.006;2023-02-16T12:22:19;101170.34;;;13.31;100.00
66668;BME280;57205;51.438;-2.006;2023-02-16T12:30:11;101171.94;;;13.17;100.00
66668;BME280;57205;51.438;-2.006;2023-02-16T12:37:53;101181.38;;;13.30;100.00
66668;BME280;57205;51.438;-2.006;2023-02-16T12:40:35;101170.34;;;13.31;100.00
66668;BME280;57205;51.438;-2.006;2023-02-16T12:45:44;101181.13;;;13.41;100.00
66668;BME280;57205;51.438;-2.006;2023-02-16T12:50:45;101194.78;;;13.40;100.00
66668;BME280;57205;51.438;-2.006;2023-02-16T13:03:10;101186.19;;;13.38;100.00
66668;BME280;57205;51.438;-2.006;2023-02-16T13:05:38;101192.13;;;13.30;100.00
66668;BME280;57205;51.438;-2.006;2023-02-16T13:08:11;101192.94;;;13.35;100.00
66668;BME280;57205;51.438;-2.006;2023-02-16T13:10:54;101198.56;;;13.49;100.00
66668;BME280;57205;51.438;-2.006;2023-02-16T13:13:23;101195.88;;;13.59;100.00
66668;BME280;57205;51.438;-2.006;2023-02-16T13:15:58;101200.72;;;13.67;100.00
66668;BME280;57205;51.438;-2.006;2023-02-16T13:18:26;101209.84;;;13.66;100.00
66668;BME280;57205;51.438;-2.006;2023-02-16T13:21:04;101206.91;;;13.57;100.00
66668;BME280;57205;51.438;-2.006;2023-02-16T13:39:15;101223.28;;;13.21;100.00
66668;BME280;57205;51.438;-2.006;2023-02-16T13:44:14;101229.38;;;13.01;100.00
66668;BME280;57205;51.438;-2.006;2023-02-16T13:46:42;101215.97;;;13.06;100.00
66668;BME280;57205;51.438;-2.006;2023-02-16T13:51:52;101207.13;;;13.11;100.00
66668;BME280;57205;51.438;-2.006;2023-02-16T13:54:28;101215.22;;;13.26;100.00
66668;BME280;57205;51.438;-2.006;2023-02-16T13:56:55;101212.00;;;13.24;100.00
66668;BME280;57205;51.438;-2.006;2023-02-16T14:01:49;101211.72;;;13.30;100.00
66668;BME280;57205;51.438;-2.006;2023-02-16T14:06:46;101201.78;;;13.36;100.00
66668;BME280;57205;51.438;-2.006;2023-02-16T14:16:49;101221.81;;;12.78;100.00
66668;BME280;57205;51.438;-2.006;2023-02-16T14:19:18;101225.25;;;12.68;100.00
66668;BME280;57205;51.438;-2.006;2023-02-16T14:21:46;101221.22;;;12.66;100.00
66668;BME280;57205;51.438;-2.006;2023-02-16T14:24:31;101215.81;;;12.56;100.00
66668;BME280;57205;51.438;-2.006;2023-02-16T14:29:52;101207.41;;;12.37;100.00
66668;BME280;57205;51.438;-2.006;2023-02-16T14:34:42;101218.63;;;12.24;100.00
66668;BME280;57205;51.438;-2.006;2023-02-16T14:39:38;101214.84;;;12.25;100.00
66668;BME280;57205;51.438;-2.006;2023-02-16T14:42:13;101217.81;;;12.24;100.00
66668;BME280;57205;51.438;-2.006;2023-02-16T14:50:04;101203.31;;;12.25;100.00
66668;BME280;57205;51.438;-2.006;2023-02-16T14:57:56;101200.44;;;12.41;100.00
66668;BME280;57205;51.438;-2.006;2023-02-16T15:00:44;101206.41;;;12.48;100.00
66668;BME280;57205;51.438;-2.006;2023-02-16T15:03:19;101212.53;;;12.49;100.00
66668;BME280;57205;51.438;-2.006;2023-02-16T15:10:41;101217.16;;;12.58;100.00
66668;BME280;57205;51.438;-2.006;2023-02-16T15:13:17;101217.72;;;12.65;100.00
66668;BME280;57205;51.438;-2.006;2023-02-16T15:15:44;101224.72;;;12.71;100.00
66668;BME280;57205;51.438;-2.006;2023-02-16T15:21:02;101237.03;;;12.62;100.00
66668;BME280;57205;51.438;-2.006;2023-02-16T15:23:32;101240.25;;;12.59;100.00
66668;BME280;57205;51.438;-2.006;2023-02-16T15:28:30;101245.34;;;12.56;100.00
66668;BME280;57205;51.438;-2.006;2023-02-16T15:31:00;101260.09;;;12.53;100.00
66668;BME280;57205;51.438;-2.006;2023-02-16T15:33:29;101256.28;;;12.44;100.00
66668;BME280;57205;51.438;-2.006;2023-02-16T15:35:57;101253.00;;;12.32;100.00
66668;BME280;57205;51.438;-2.006;2023-02-16T15:38:25;101247.59;;;12.22;100.00
66668;BME280;57205;51.438;-2.006;2023-02-16T15:40:54;101259.34;;;12.16;100.00
66668;BME280;57205;51.438;-2.006;2023-02-16T15:45:51;101235.75;;;12.18;100.00
66668;BME280;57205;51.438;-2.006;2023-02-16T15:50:52;101243.81;;;12.23;100.00
66668;BME280;57205;51.438;-2.006;2023-02-16T15:53:32;101240.09;;;12.24;100.00
66668;BME280;57205;51.438;-2.006;2023-02-16T15:55:58;101243.28;;;12.26;100.00
66668;BME280;57205;51.438;-2.006;2023-02-16T15:58:26;101244.63;;;12.19;100.00